Flight Track Log - Related Links

Times and Time Zones

All times are in EDT time to prevent confusion due to time zone crossing. See the DAL878 flight status page for this flight to view local times or setup timezone preferences in your user account.

Time Position Orientation Groundspeed Altitude Reporting Facility
EDT Latitude Longitude Course Direction KTS MPH feet Rate Location/Type
Mon 08:04:39 PM 42.2017 -83.3556 180° South 169 194 1,400  Level FAA TRACON SMA TRACON (SMA)
Mon 08:05:02 PM 42.1814 -83.3639 197° South 194 223 2,200 2,000 Climbing FAA TRACON SMA TRACON (SMA)
Mon 08:05:21 PM 42.1639 -83.3703 195° South 214 246 2,800 2,270 Climbing FAA TRACON SMA TRACON (SMA)
Mon 08:05:39 PM 42.1469 -83.3764 195° South 229 264 3,600 2,526 Climbing FAA TRACON SMA TRACON (SMA)
Mon 08:05:59 PM 42.1281 -83.3825 193° South 240 276 4,400 3,300 Climbing FAA TRACON SMA TRACON (SMA)
Mon 08:06:19 PM 42.1044 -83.3897 193° South 243 280 5,800 3,600 Climbing FAA TRACON SMA TRACON (SMA)
Mon 08:06:39 PM 42.0803 -83.3967 192° South 255 293 6,800 2,850 Climbing FAA TRACON SMA TRACON (SMA)
Mon 08:06:59 PM 42.0586 -83.3956 178° South 262 302 7,700 3,150 Climbing FAA TRACON SMA TRACON (SMA)
Mon 08:07:00 PM 41.8385 -83.3070 180° South  Level Estimated
Mon 08:07:19 PM 42.0300 -83.3914 174° South 266 306 8,900  Level FAA TRACON SMA TRACON (SMA)
Mon 08:07:37 PM 42.0131 -83.3892 174° South 268 308 9,400 1,923 Climbing Cleveland Center
Mon 08:08:00 PM 41.7139 -83.2917 180° South  Level Estimated
Mon 08:08:37 PM 41.9322 -83.3772 174° South 313 360 11,400  Level Cleveland Center
Mon 08:09:00 PM 41.5893 -83.2764 180° South  Level Estimated
Mon 08:09:37 PM 41.8283 -83.3642 175° South 330 380 13,700  Level Cleveland Center
Mon 08:10:37 PM 41.7264 -83.3486 174° South 351 404 16,500 2,400 Climbing Cleveland Center
Mon 08:11:37 PM 41.6203 -83.3386 176° South 376 433 18,500 2,050 Climbing Cleveland Center
Mon 08:12:37 PM 41.5097 -83.3450 182° South 390 449 20,600 2,100 Climbing Cleveland Center
Mon 08:13:37 PM 41.4042 -83.4014 202° Southwest 395 455 22,700 2,000 Climbing Cleveland Center
Mon 08:14:37 PM 41.2983 -83.4658 205° Southwest 405 466 24,600 1,700 Climbing Cleveland Center
Mon 08:15:37 PM 41.1903 -83.5303 204° Southwest 418 481 26,100 1,364 Climbing Cleveland Center
Mon 08:17:55 PM 40.9197 -83.6833 203° Southwest 463 533 29,100 1,290 Climbing Indianapolis Center
Mon 08:18:57 PM 40.7989 -83.7528 204° Southwest 470 541 30,400 1,463 Climbing Indianapolis Center
Mon 08:19:58 PM 40.6764 -83.8228 203° Southwest 475 547 32,100 1,220 Climbing Indianapolis Center
Mon 08:21:00 PM 40.5581 -83.8900 203° Southwest 464 534 32,900 390 Climbing Indianapolis Center
Mon 08:22:01 PM 40.4428 -83.9539 203° Southwest 452 520 32,900  Level Indianapolis Center
Mon 08:23:03 PM 40.3264 -84.0203 204° Southwest 454 522 32,900  Level Indianapolis Center
Mon 08:24:04 PM 40.2014 -84.0583 193° South 466 536 32,900  Level Indianapolis Center
Mon 08:25:06 PM 40.0736 -84.0781 187° South 463 533 32,900  Level Indianapolis Center
Mon 08:26:07 PM 39.9453 -84.0983 187° South 463 533 32,900  Level Indianapolis Center
Mon 08:27:09 PM 39.8183 -84.1206 188° South 461 531 32,900  Level Indianapolis Center
Mon 08:28:10 PM 39.6697 -84.1444 187° South 461 531 32,900  Level Indianapolis Center
Mon 08:29:11 PM 39.5442 -84.1656 187° South 454 522 32,900  Level Indianapolis Center
Mon 08:30:13 PM 39.4183 -84.1861 187° South 454 522 32,900  Level Indianapolis Center
Mon 08:31:14 PM 39.2911 -84.2064 187° South 456 525 32,900  Level Indianapolis Center
Mon 08:32:16 PM 39.1650 -84.2275 187° South 455 524 32,900  Level Indianapolis Center
Mon 08:33:17 PM 39.0381 -84.2481 187° South 456 525 32,900  Level Indianapolis Center
Mon 08:34:19 PM 38.9114 -84.2700 188° South 456 525 32,900  Level Indianapolis Center
Mon 08:35:20 PM 38.7856 -84.2900 187° South 455 524 32,900 390 Level Indianapolis Center
Mon 08:36:22 PM 38.6572 -84.3086 186° South 458 527 33,700 488 Climbing Indianapolis Center
Mon 08:37:23 PM 38.5281 -84.2922 174° South 446 513 33,900 585 Climbing Indianapolis Center
Mon 08:38:25 PM 38.3808 -84.2694 173° South 452 520 34,900 488 Climbing Indianapolis Center
Mon 08:39:26 PM 38.2561 -84.2486 173° South 452 520 34,900  Level Indianapolis Center
Mon 08:40:27 PM 38.1300 -84.2292 173° South 454 522 34,900  Level Indianapolis Center
Mon 08:41:29 PM 38.0025 -84.2106 173° South 459 528 34,900  Level Indianapolis Center
Mon 08:42:30 PM 37.8747 -84.1911 173° South 461 531 34,900  Level Indianapolis Center
Mon 08:43:32 PM 37.7458 -84.1711 173° South 466 536 34,900  Level Indianapolis Center
Mon 08:44:33 PM 37.6169 -84.1506 173° South 466 536 34,900  Level Indianapolis Center
Mon 08:45:34 PM 37.4886 -84.1306 173° South 465 535 34,900  Level Indianapolis Center
Mon 08:46:36 PM 37.3386 -84.1078 173° South 465 535 34,900  Level Indianapolis Center
Mon 08:47:37 PM 37.2094 -84.0886 173° South 467 537 34,900  Level Indianapolis Center
Mon 08:48:38 PM 37.0811 -84.0686 173° South 466 536 34,900  Level Indianapolis Center
Mon 08:49:40 PM 36.9539 -84.0503 173° South 462 532 34,900  Level Indianapolis Center
Mon 08:50:41 PM 36.8269 -84.0319 173° South 461 531 34,900  Level Indianapolis Center
Mon 08:51:42 PM 36.6997 -84.0239 177° South 461 531 34,900  Level Indianapolis Center
Mon 08:52:17 PM 36.6150 -84.0414 189° South 460 529 34,900  Level Atlanta Center
Mon 08:53:17 PM 36.4900 -84.0697 190° South 460 529 34,900  Level Atlanta Center
Mon 08:54:17 PM 36.3628 -84.0903 187° South 460 529 34,900  Level Atlanta Center
Mon 08:55:17 PM 36.2375 -84.1083 187° South 466 536 34,900  Level Atlanta Center
Mon 08:56:17 PM 36.1103 -84.1236 186° South 466 536 34,900  Level Atlanta Center
Mon 08:57:17 PM 35.9853 -84.1389 186° South 461 531 34,900  Level Atlanta Center
Mon 08:58:17 PM 35.8581 -84.1542 186° South 461 531 34,900  Level Atlanta Center
Mon 08:59:17 PM 35.7308 -84.1717 186° South 466 536 34,900  Level Atlanta Center
Mon 09:00:17 PM 35.6158 -84.1869 186° South 466 536 34,900  Level Atlanta Center
Mon 09:01:17 PM 35.4886 -84.2044 186° South 466 536 34,900  Level Atlanta Center
Mon 09:02:17 PM 35.3633 -84.2194 186° South 461 531 34,900  Level Atlanta Center
Mon 09:03:17 PM 35.2319 -84.2372 186° South 466 536 34,900  Level Atlanta Center
Mon 09:04:17 PM 35.1047 -84.2519 185° South 466 536 34,900  Level Atlanta Center
Mon 09:05:17 PM 34.9775 -84.2694 186° South 466 536 34,900  Level Atlanta Center
Mon 09:06:17 PM 34.8481 -84.2817 184° South 466 536 34,900  Level Atlanta Center
Mon 09:07:17 PM 34.7206 -84.3017 187° South 466 536 34,900  Level Atlanta Center
Mon 09:08:17 PM 34.5911 -84.3189 186° South 466 536 34,900  Level Atlanta Center
Mon 09:09:17 PM 34.4617 -84.3336 185° South 466 536 34,900  Level Atlanta Center
Mon 09:10:17 PM 34.3178 -84.3506 186° South 471 542 34,900  Level Atlanta Center
Mon 09:11:17 PM 34.1903 -84.3653 185° South 471 542 34,900  Level Atlanta Center
Mon 09:12:17 PM 34.0692 -84.3822 187° South 476 548 34,900  Level Atlanta Center
Mon 09:13:17 PM 33.9211 -84.3992 185° South 484 557 34,900  Level Atlanta Center
Mon 09:14:17 PM 33.8144 -84.4139 187° South 484 557 34,900  Level Atlanta Center
Mon 09:15:17 PM 33.6558 -84.4331 186° South 479 551 34,900  Level Atlanta Center
Mon 09:16:17 PM 33.5347 -84.4350 181° South 484 557 34,900  Level Atlanta Center
Mon 09:17:17 PM 33.3969 -84.4319 179° South 484 557 34,900  Level Atlanta Center
Mon 09:18:17 PM 33.2614 -84.4289 179° South 489 563 34,900  Level Atlanta Center
Mon 09:19:17 PM 33.1153 -84.4281 180° South 489 563 34,900  Level Atlanta Center
Mon 09:20:17 PM 32.9797 -84.4228 178° South 489 563 34,900  Level Atlanta Center
Mon 09:21:17 PM 32.8439 -84.4197 179° South 482 555 34,900  Level Atlanta Center
Mon 09:22:17 PM 32.7103 -84.4189 180° South 482 555 34,900  Level Atlanta Center
Mon 09:23:17 PM 32.5789 -84.4161 179° South 477 549 34,900  Level Atlanta Center
Mon 09:24:17 PM 32.4431 -84.4153 180° South 477 549 34,900  Level Atlanta Center
Mon 09:25:17 PM 32.3139 -84.4100 178° South 477 549 34,900  Level Atlanta Center
Mon 09:26:17 PM 32.1822 -84.4069 179° South 477 549 34,900  Level Atlanta Center
Mon 09:27:33 PM 32.0281 -84.4044 179° South 470 541 34,900  Level Jacksonville Center
Mon 09:28:33 PM 31.8944 -84.4000 178° South 475 547 34,900  Level Jacksonville Center
Mon 09:29:33 PM 31.7631 -84.3978 179° South 475 547 34,900  Level Jacksonville Center
Mon 09:30:33 PM 31.6314 -84.3933 178° South 475 547 34,900  Level Jacksonville Center
Mon 09:31:33 PM 31.4981 -84.3911 179° South 475 547 34,900  Level Jacksonville Center
Mon 09:32:33 PM 31.3644 -84.3889 179° South 475 547 34,900  Level Jacksonville Center
Mon 09:33:33 PM 31.2308 -84.3867 179° South 475 547 34,900  Level Jacksonville Center
Mon 09:34:33 PM 31.0972 -84.3847 179° South 475 547 34,900  Level Jacksonville Center
Mon 09:35:33 PM 30.9656 -84.3803 178° South 475 547 34,900  Level Jacksonville Center
Mon 09:36:33 PM 30.8319 -84.3806 180° South 475 547 34,900  Level Jacksonville Center
Mon 09:37:33 PM 30.7006 -84.3761 178° South 475 547 34,900  Level Jacksonville Center
Mon 09:38:33 PM 30.5647 -84.3714 178° South 475 547 34,900  Level Jacksonville Center
Mon 09:39:33 PM 30.4239 -84.2922 154° Southeast 490 564 34,900  Level Jacksonville Center
Mon 09:40:33 PM 30.3056 -84.2111 149° Southeast 490 564 34,900  Level Jacksonville Center
Mon 09:41:33 PM 30.1978 -84.1400 150° Southeast 495 570 34,900  Level Jacksonville Center
Mon 09:42:33 PM 30.0733 -84.0614 151° Southeast 500 575 34,900  Level Jacksonville Center
Mon 09:43:33 PM 29.9383 -83.9736 151° Southeast 500 575 34,900  Level Jacksonville Center
Mon 09:44:33 PM 29.8178 -83.8956 151° Southeast 500 575 34,900  Level Jacksonville Center
Mon 09:45:33 PM 29.6975 -83.8178 151° Southeast 500 575 34,900  Level Jacksonville Center
Mon 09:46:33 PM 29.5747 -83.7356 150° Southeast 500 575 34,900  Level Jacksonville Center
Mon 09:47:33 PM 29.4542 -83.6606 152° Southeast 495 570 34,900  Level Jacksonville Center
Mon 09:48:33 PM 29.3336 -83.5833 151° Southeast 495 570 34,900  Level Jacksonville Center
Mon 09:49:33 PM 29.2128 -83.5064 151° Southeast 495 570 34,900  Level Jacksonville Center
Mon 09:50:33 PM 29.0922 -83.4272 150° Southeast 495 570 34,900  Level Jacksonville Center
Mon 09:51:33 PM 28.9733 -83.3531 151° Southeast 495 570 34,900  Level Jacksonville Center
Mon 09:52:33 PM 28.8483 -83.2981 159° South 490 564 34,900  Level Jacksonville Center
Mon 09:54:15 PM 28.6433 -83.2247 163° South 486 559 34,900  Level Miami Center
Mon 09:55:15 PM 28.5136 -83.1842 165° South 480 552 34,900 -250 Level Miami Center
Mon 09:56:15 PM 28.3883 -83.1394 163° South 480 552 34,400 -1,700 Descending Miami Center
Mon 09:57:15 PM 28.2592 -83.0897 161° South 480 552 31,500 -3,100 Descending Miami Center
Mon 09:58:15 PM 28.1300 -83.0403 161° South 485 558 28,200 -2,300 Descending Miami Center
Mon 09:59:15 PM 28.0028 -82.9889 160° South 485 558 26,900 -650 Descending Miami Center
Mon 10:00:15 PM 27.8781 -82.9328 158° South 485 558 26,900 -1,067 Level Miami Center
Mon 10:02:15 PM 27.6344 -82.8192 158° South 485 558 23,700 -1,633 Descending Miami Center
Mon 10:03:15 PM 27.5117 -82.7658 159° South 480 552 22,000 -1,750 Descending Miami Center
Mon 10:04:15 PM 27.3806 -82.7053 158° South 462 532 20,200 -1,700 Descending Miami Center
Mon 10:05:15 PM 27.2700 -82.6553 158° South 447 514 18,600 -1,650 Descending Miami Center
Mon 10:06:15 PM 27.1686 -82.5781 146° Southeast 447 514 16,900 -1,600 Descending Miami Center
Mon 10:07:15 PM 27.0694 -82.5031 146° Southeast 433 498 15,400 -1,500 Descending Miami Center
Mon 10:08:15 PM 26.9714 -82.4472 153° Southeast 418 481 13,900 -1,200 Descending Miami Center
Mon 10:09:15 PM 26.8742 -82.4192 166° South 374 430 13,000 -900 Descending Miami Center
Mon 10:10:15 PM 26.7867 -82.4150 178° South 348 400 12,100 -1,150 Descending Miami Center
Mon 10:11:15 PM 26.7017 -82.4064 175° South 325 374 10,700 -1,400 Descending Miami Center
Mon 10:12:15 PM 26.6217 -82.4189 188° South 306 352 9,300 -1,400 Descending Miami Center
Mon 10:13:15 PM 26.5428 -82.4083 173° South 295 339 7,900 -1,550 Descending Miami Center
Mon 10:14:15 PM 26.4975 -82.3411 127° Southeast 256 295 6,200 -1,900 Descending Miami Center
Mon 10:15:15 PM 26.4606 -82.2675 119° Southeast 256 295 4,100 -1,512 Descending Miami Center
Mon 10:16:18 PM 26.4403 -82.1925 107° East 256 295 3,100 -952 Descending Miami Center
Mon 10:18:00 PM 26.4215 -81.9596 119° Southeast  Level FlightAware Approximate
Mon 10:25:00 PM 26.5333 -81.7500 50° Northeast  Level FlightAware Approximate
Mon 10:26:00 PM 26.5362 -81.7552 50° Northeast  Level Estimated

Login

Don't have an account? Register now (free) for customized features, flight alerts, and more!